sensor_id;sensor_type;location;lat;lon;timestamp;P1;durP1;ratioP1;P2;durP2;ratioP2
11646;SDS011;5880;52.342;9.662;2022-12-11T00:00:36;19.27;;;12.17;;
11646;SDS011;5880;52.342;9.662;2022-12-11T00:03:03;17.23;;;11.37;;
11646;SDS011;5880;52.342;9.662;2022-12-11T00:05:29;18.77;;;11.23;;
11646;SDS011;5880;52.342;9.662;2022-12-11T00:07:55;18.40;;;11.67;;
11646;SDS011;5880;52.342;9.662;2022-12-11T00:10:21;17.93;;;11.27;;
11646;SDS011;5880;52.342;9.662;2022-12-11T00:12:47;20.00;;;11.93;;
11646;SDS011;5880;52.342;9.662;2022-12-11T00:15:13;18.97;;;11.23;;
11646;SDS011;5880;52.342;9.662;2022-12-11T00:17:38;18.00;;;12.00;;
11646;SDS011;5880;52.342;9.662;2022-12-11T00:20:04;20.63;;;11.90;;
11646;SDS011;5880;52.342;9.662;2022-12-11T00:22:32;18.13;;;10.90;;
11646;SDS011;5880;52.342;9.662;2022-12-11T00:24:58;17.60;;;10.73;;
11646;SDS011;5880;52.342;9.662;2022-12-11T00:27:24;20.33;;;11.27;;
11646;SDS011;5880;52.342;9.662;2022-12-11T00:29:50;17.97;;;10.97;;
11646;SDS011;5880;52.342;9.662;2022-12-11T00:32:15;19.97;;;11.43;;
11646;SDS011;5880;52.342;9.662;2022-12-11T00:34:41;19.70;;;11.50;;
11646;SDS011;5880;52.342;9.662;2022-12-11T00:37:06;19.03;;;11.73;;
11646;SDS011;5880;52.342;9.662;2022-12-11T00:39:32;20.30;;;12.10;;
11646;SDS011;5880;52.342;9.662;2022-12-11T00:41:58;19.90;;;12.30;;
11646;SDS011;5880;52.342;9.662;2022-12-11T00:44:23;19.73;;;12.47;;
11646;SDS011;5880;52.342;9.662;2022-12-11T00:46:49;22.77;;;13.17;;
11646;SDS011;5880;52.342;9.662;2022-12-11T00:49:15;21.37;;;13.57;;
11646;SDS011;5880;52.342;9.662;2022-12-11T00:51:41;20.70;;;12.93;;
11646;SDS011;5880;52.342;9.662;2022-12-11T00:54:06;21.17;;;13.10;;
11646;SDS011;5880;52.342;9.662;2022-12-11T00:56:33;22.07;;;12.83;;
11646;SDS011;5880;52.342;9.662;2022-12-11T00:58:58;22.90;;;13.67;;
11646;SDS011;5880;52.342;9.662;2022-12-11T01:01:24;19.60;;;12.50;;
11646;SDS011;5880;52.342;9.662;2022-12-11T01:03:50;21.23;;;12.87;;
11646;SDS011;5880;52.342;9.662;2022-12-11T01:06:18;21.00;;;13.13;;
11646;SDS011;5880;52.342;9.662;2022-12-11T01:08:47;20.20;;;13.03;;
11646;SDS011;5880;52.342;9.662;2022-12-11T01:11:33;18.90;;;11.97;;
11646;SDS011;5880;52.342;9.662;2022-12-11T01:13:59;22.33;;;13.47;;
11646;SDS011;5880;52.342;9.662;2022-12-11T01:16:25;22.40;;;13.37;;
11646;SDS011;5880;52.342;9.662;2022-12-11T01:18:50;20.17;;;13.73;;
11646;SDS011;5880;52.342;9.662;2022-12-11T01:21:16;21.60;;;13.67;;
11646;SDS011;5880;52.342;9.662;2022-12-11T01:23:42;21.60;;;13.50;;
11646;SDS011;5880;52.342;9.662;2022-12-11T01:26:08;19.10;;;11.80;;
11646;SDS011;5880;52.342;9.662;2022-12-11T01:28:39;26.47;;;15.07;;
11646;SDS011;5880;52.342;9.662;2022-12-11T01:31:09;22.37;;;14.60;;
11646;SDS011;5880;52.342;9.662;2022-12-11T01:33:37;21.50;;;13.57;;
11646;SDS011;5880;52.342;9.662;2022-12-11T01:36:07;21.27;;;13.50;;
11646;SDS011;5880;52.342;9.662;2022-12-11T01:38:43;24.47;;;14.67;;
11646;SDS011;5880;52.342;9.662;2022-12-11T01:41:11;24.73;;;14.13;;
11646;SDS011;5880;52.342;9.662;2022-12-11T01:46:30;20.83;;;12.70;;
11646;SDS011;5880;52.342;9.662;2022-12-11T01:48:58;22.80;;;13.70;;
11646;SDS011;5880;52.342;9.662;2022-12-11T01:51:28;23.43;;;14.33;;
11646;SDS011;5880;52.342;9.662;2022-12-11T01:54:01;23.37;;;13.73;;
11646;SDS011;5880;52.342;9.662;2022-12-11T01:56:32;23.10;;;13.67;;
11646;SDS011;5880;52.342;9.662;2022-12-11T01:59:02;21.70;;;12.90;;
11646;SDS011;5880;52.342;9.662;2022-12-11T02:01:48;20.80;;;13.30;;
11646;SDS011;5880;52.342;9.662;2022-12-11T02:04:23;21.17;;;14.30;;
11646;SDS011;5880;52.342;9.662;2022-12-11T02:06:50;22.33;;;13.27;;
11646;SDS011;5880;52.342;9.662;2022-12-11T02:09:30;21.10;;;13.33;;
11646;SDS011;5880;52.342;9.662;2022-12-11T02:12:08;22.77;;;13.33;;
11646;SDS011;5880;52.342;9.662;2022-12-11T02:20:12;24.00;;;14.13;;
11646;SDS011;5880;52.342;9.662;2022-12-11T02:28:32;19.93;;;12.93;;
11646;SDS011;5880;52.342;9.662;2022-12-11T02:31:13;21.13;;;13.57;;
11646;SDS011;5880;52.342;9.662;2022-12-11T02:34:01;23.90;;;14.13;;
11646;SDS011;5880;52.342;9.662;2022-12-11T02:36:44;25.87;;;15.47;;
11646;SDS011;5880;52.342;9.662;2022-12-11T02:39:18;26.57;;;15.70;;
11646;SDS011;5880;52.342;9.662;2022-12-11T02:41:48;22.97;;;14.17;;
11646;SDS011;5880;52.342;9.662;2022-12-11T02:44:16;23.90;;;14.23;;
11646;SDS011;5880;52.342;9.662;2022-12-11T02:46:53;20.53;;;13.40;;
11646;SDS011;5880;52.342;9.662;2022-12-11T02:49:20;24.20;;;13.87;;
11646;SDS011;5880;52.342;9.662;2022-12-11T02:51:48;19.67;;;12.90;;
11646;SDS011;5880;52.342;9.662;2022-12-11T02:54:17;19.53;;;11.90;;
11646;SDS011;5880;52.342;9.662;2022-12-11T02:56:50;19.50;;;12.33;;
11646;SDS011;5880;52.342;9.662;2022-12-11T02:59:30;18.63;;;11.10;;
11646;SDS011;5880;52.342;9.662;2022-12-11T03:02:01;19.37;;;12.10;;
11646;SDS011;5880;52.342;9.662;2022-12-11T03:04:28;21.60;;;13.07;;
11646;SDS011;5880;52.342;9.662;2022-12-11T03:06:57;20.10;;;12.73;;
11646;SDS011;5880;52.342;9.662;2022-12-11T03:09:35;24.37;;;13.77;;
11646;SDS011;5880;52.342;9.662;2022-12-11T03:12:13;22.10;;;13.83;;
11646;SDS011;5880;52.342;9.662;2022-12-11T03:14:48;17.80;;;12.17;;
11646;SDS011;5880;52.342;9.662;2022-12-11T03:17:21;20.07;;;12.17;;
11646;SDS011;5880;52.342;9.662;2022-12-11T03:25:12;21.03;;;12.33;;
11646;SDS011;5880;52.342;9.662;2022-12-11T03:27:56;18.10;;;11.23;;
11646;SDS011;5880;52.342;9.662;2022-12-11T03:30:32;22.57;;;13.73;;
11646;SDS011;5880;52.342;9.662;2022-12-11T03:33:10;19.03;;;12.43;;
11646;SDS011;5880;52.342;9.662;2022-12-11T03:35:47;21.10;;;12.70;;
11646;SDS011;5880;52.342;9.662;2022-12-11T03:38:22;21.97;;;12.90;;
11646;SDS011;5880;52.342;9.662;2022-12-11T03:40:55;19.33;;;12.10;;
11646;SDS011;5880;52.342;9.662;2022-12-11T03:43:26;20.10;;;13.40;;
11646;SDS011;5880;52.342;9.662;2022-12-11T03:45:56;18.63;;;12.47;;
11646;SDS011;5880;52.342;9.662;2022-12-11T03:48:28;21.40;;;13.20;;
11646;SDS011;5880;52.342;9.662;2022-12-11T03:51:00;22.27;;;13.93;;
11646;SDS011;5880;52.342;9.662;2022-12-11T03:53:30;20.63;;;13.17;;
11646;SDS011;5880;52.342;9.662;2022-12-11T03:55:59;21.97;;;13.93;;
11646;SDS011;5880;52.342;9.662;2022-12-11T03:58:30;23.23;;;14.10;;
11646;SDS011;5880;52.342;9.662;2022-12-11T04:00:56;21.63;;;13.67;;
11646;SDS011;5880;52.342;9.662;2022-12-11T04:03:22;25.03;;;13.47;;
11646;SDS011;5880;52.342;9.662;2022-12-11T04:05:50;20.20;;;12.73;;
11646;SDS011;5880;52.342;9.662;2022-12-11T04:08:18;19.70;;;12.90;;
11646;SDS011;5880;52.342;9.662;2022-12-11T04:10:46;20.00;;;12.23;;
11646;SDS011;5880;52.342;9.662;2022-12-11T04:13:13;19.87;;;12.77;;
11646;SDS011;5880;52.342;9.662;2022-12-11T04:15:39;20.63;;;12.20;;
11646;SDS011;5880;52.342;9.662;2022-12-11T04:18:05;18.93;;;12.50;;
11646;SDS011;5880;52.342;9.662;2022-12-11T04:20:54;20.17;;;11.87;;
11646;SDS011;5880;52.342;9.662;2022-12-11T04:23:38;17.47;;;10.70;;
11646;SDS011;5880;52.342;9.662;2022-12-11T04:26:23;18.80;;;11.73;;
11646;SDS011;5880;52.342;9.662;2022-12-11T04:28:49;17.70;;;10.83;;
11646;SDS011;5880;52.342;9.662;2022-12-11T04:31:17;18.30;;;11.30;;
11646;SDS011;5880;52.342;9.662;2022-12-11T04:33:46;22.20;;;12.30;;
11646;SDS011;5880;52.342;9.662;2022-12-11T04:36:12;20.30;;;11.83;;
11646;SDS011;5880;52.342;9.662;2022-12-11T04:38:39;18.40;;;11.43;;
11646;SDS011;5880;52.342;9.662;2022-12-11T04:41:09;19.70;;;11.93;;
11646;SDS011;5880;52.342;9.662;2022-12-11T04:43:37;20.63;;;11.80;;
11646;SDS011;5880;52.342;9.662;2022-12-11T04:46:05;19.37;;;11.70;;
11646;SDS011;5880;52.342;9.662;2022-12-11T04:48:35;22.57;;;12.67;;
11646;SDS011;5880;52.342;9.662;2022-12-11T04:51:02;22.27;;;13.37;;
11646;SDS011;5880;52.342;9.662;2022-12-11T04:53:28;21.30;;;12.47;;
11646;SDS011;5880;52.342;9.662;2022-12-11T04:55:55;22.20;;;12.80;;
11646;SDS011;5880;52.342;9.662;2022-12-11T04:58:21;18.90;;;12.40;;
11646;SDS011;5880;52.342;9.662;2022-12-11T05:00:48;18.67;;;10.50;;
11646;SDS011;5880;52.342;9.662;2022-12-11T05:03:15;17.97;;;10.97;;
11646;SDS011;5880;52.342;9.662;2022-12-11T05:05:46;15.77;;;9.97;;
11646;SDS011;5880;52.342;9.662;2022-12-11T05:08:19;15.87;;;9.80;;
11646;SDS011;5880;52.342;9.662;2022-12-11T05:10:58;17.30;;;10.70;;
11646;SDS011;5880;52.342;9.662;2022-12-11T05:13:27;15.03;;;8.63;;
11646;SDS011;5880;52.342;9.662;2022-12-11T05:15:54;13.57;;;9.17;;
11646;SDS011;5880;52.342;9.662;2022-12-11T05:18:20;13.77;;;9.03;;
11646;SDS011;5880;52.342;9.662;2022-12-11T05:20:56;16.80;;;10.53;;
11646;SDS011;5880;52.342;9.662;2022-12-11T05:23:25;14.20;;;9.63;;
11646;SDS011;5880;52.342;9.662;2022-12-11T05:25:54;12.93;;;8.70;;
11646;SDS011;5880;52.342;9.662;2022-12-11T05:28:23;13.63;;;8.87;;
11646;SDS011;5880;52.342;9.662;2022-12-11T05:30:58;17.10;;;10.33;;
11646;SDS011;5880;52.342;9.662;2022-12-11T05:33:26;14.23;;;9.43;;
11646;SDS011;5880;52.342;9.662;2022-12-11T05:35:53;15.57;;;9.30;;
11646;SDS011;5880;52.342;9.662;2022-12-11T05:38:19;14.93;;;9.50;;
11646;SDS011;5880;52.342;9.662;2022-12-11T05:40:56;15.10;;;10.03;;
11646;SDS011;5880;52.342;9.662;2022-12-11T05:43:24;13.87;;;9.07;;
11646;SDS011;5880;52.342;9.662;2022-12-11T05:45:51;14.13;;;9.70;;
11646;SDS011;5880;52.342;9.662;2022-12-11T05:48:18;14.23;;;8.93;;
11646;SDS011;5880;52.342;9.662;2022-12-11T05:50:44;15.37;;;9.17;;
11646;SDS011;5880;52.342;9.662;2022-12-11T05:53:24;16.87;;;9.90;;
11646;SDS011;5880;52.342;9.662;2022-12-11T05:55:51;17.37;;;9.77;;
11646;SDS011;5880;52.342;9.662;2022-12-11T05:58:17;14.90;;;9.70;;
11646;SDS011;5880;52.342;9.662;2022-12-11T06:00:43;14.13;;;8.90;;
11646;SDS011;5880;52.342;9.662;2022-12-11T06:03:09;15.40;;;9.60;;
11646;SDS011;5880;52.342;9.662;2022-12-11T06:05:38;14.27;;;8.87;;
11646;SDS011;5880;52.342;9.662;2022-12-11T06:08:04;16.27;;;9.83;;
11646;SDS011;5880;52.342;9.662;2022-12-11T06:10:30;14.27;;;9.03;;
11646;SDS011;5880;52.342;9.662;2022-12-11T06:12:56;16.70;;;9.63;;
11646;SDS011;5880;52.342;9.662;2022-12-11T06:15:22;17.07;;;10.13;;
11646;SDS011;5880;52.342;9.662;2022-12-11T06:17:48;15.03;;;9.60;;
11646;SDS011;5880;52.342;9.662;2022-12-11T06:20:13;14.60;;;8.97;;
11646;SDS011;5880;52.342;9.662;2022-12-11T06:22:39;15.60;;;9.57;;
11646;SDS011;5880;52.342;9.662;2022-12-11T06:25:05;16.30;;;9.97;;
11646;SDS011;5880;52.342;9.662;2022-12-11T06:27:32;13.23;;;9.37;;
11646;SDS011;5880;52.342;9.662;2022-12-11T06:29:57;14.03;;;8.83;;
11646;SDS011;5880;52.342;9.662;2022-12-11T06:32:23;16.07;;;10.87;;
11646;SDS011;5880;52.342;9.662;2022-12-11T06:34:49;14.87;;;10.03;;
11646;SDS011;5880;52.342;9.662;2022-12-11T06:37:14;15.03;;;9.70;;
11646;SDS011;5880;52.342;9.662;2022-12-11T06:39:40;14.93;;;9.37;;
11646;SDS011;5880;52.342;9.662;2022-12-11T06:42:06;15.80;;;9.77;;
11646;SDS011;5880;52.342;9.662;2022-12-11T06:44:31;15.20;;;10.37;;
11646;SDS011;5880;52.342;9.662;2022-12-11T06:46:57;14.20;;;9.97;;
11646;SDS011;5880;52.342;9.662;2022-12-11T06:49:23;14.33;;;9.33;;
11646;SDS011;5880;52.342;9.662;2022-12-11T06:51:48;14.87;;;9.90;;
11646;SDS011;5880;52.342;9.662;2022-12-11T06:54:14;16.27;;;9.87;;
11646;SDS011;5880;52.342;9.662;2022-12-11T06:56:40;15.23;;;9.00;;
11646;SDS011;5880;52.342;9.662;2022-12-11T06:59:05;14.00;;;9.67;;
11646;SDS011;5880;52.342;9.662;2022-12-11T07:01:34;14.70;;;9.93;;
11646;SDS011;5880;52.342;9.662;2022-12-11T07:04:00;15.30;;;9.77;;
11646;SDS011;5880;52.342;9.662;2022-12-11T07:06:26;18.07;;;10.37;;
11646;SDS011;5880;52.342;9.662;2022-12-11T07:08:53;16.57;;;9.90;;
11646;SDS011;5880;52.342;9.662;2022-12-11T07:11:20;15.73;;;9.70;;
11646;SDS011;5880;52.342;9.662;2022-12-11T07:13:46;14.00;;;9.80;;
11646;SDS011;5880;52.342;9.662;2022-12-11T07:16:12;15.43;;;10.40;;
11646;SDS011;5880;52.342;9.662;2022-12-11T07:18:42;15.87;;;9.87;;
11646;SDS011;5880;52.342;9.662;2022-12-11T07:21:12;15.47;;;9.20;;
11646;SDS011;5880;52.342;9.662;2022-12-11T07:23:38;17.37;;;11.13;;
11646;SDS011;5880;52.342;9.662;2022-12-11T07:26:06;17.00;;;10.63;;
11646;SDS011;5880;52.342;9.662;2022-12-11T07:28:34;18.80;;;11.83;;
11646;SDS011;5880;52.342;9.662;2022-12-11T07:31:06;20.93;;;12.50;;
11646;SDS011;5880;52.342;9.662;2022-12-11T07:33:35;18.40;;;11.53;;
11646;SDS011;5880;52.342;9.662;2022-12-11T07:36:01;18.47;;;11.17;;
11646;SDS011;5880;52.342;9.662;2022-12-11T07:38:29;16.43;;;10.97;;
11646;SDS011;5880;52.342;9.662;2022-12-11T07:40:55;17.00;;;11.10;;
11646;SDS011;5880;52.342;9.662;2022-12-11T07:43:26;17.73;;;11.33;;
11646;SDS011;5880;52.342;9.662;2022-12-11T07:45:51;16.57;;;11.17;;
11646;SDS011;5880;52.342;9.662;2022-12-11T07:48:17;17.00;;;11.27;;
11646;SDS011;5880;52.342;9.662;2022-12-11T07:50:43;17.53;;;11.87;;
11646;SDS011;5880;52.342;9.662;2022-12-11T07:53:08;18.60;;;11.70;;
11646;SDS011;5880;52.342;9.662;2022-12-11T07:55:35;19.67;;;12.17;;
11646;SDS011;5880;52.342;9.662;2022-12-11T07:58:00;17.97;;;12.20;;
11646;SDS011;5880;52.342;9.662;2022-12-11T08:00:26;16.20;;;10.70;;
11646;SDS011;5880;52.342;9.662;2022-12-11T08:02:52;18.17;;;11.73;;
11646;SDS011;5880;52.342;9.662;2022-12-11T08:05:17;22.03;;;13.13;;
11646;SDS011;5880;52.342;9.662;2022-12-11T08:07:43;19.80;;;12.40;;
11646;SDS011;5880;52.342;9.662;2022-12-11T08:10:09;20.03;;;12.20;;
11646;SDS011;5880;52.342;9.662;2022-12-11T08:12:34;17.83;;;11.27;;
11646;SDS011;5880;52.342;9.662;2022-12-11T08:15:00;18.83;;;11.97;;
11646;SDS011;5880;52.342;9.662;2022-12-11T08:17:26;19.67;;;12.13;;
11646;SDS011;5880;52.342;9.662;2022-12-11T08:19:52;16.30;;;10.43;;
11646;SDS011;5880;52.342;9.662;2022-12-11T08:22:17;17.80;;;11.00;;
11646;SDS011;5880;52.342;9.662;2022-12-11T08:24:43;21.47;;;12.33;;
11646;SDS011;5880;52.342;9.662;2022-12-11T08:27:11;18.20;;;11.47;;
11646;SDS011;5880;52.342;9.662;2022-12-11T08:29:36;17.20;;;11.10;;
11646;SDS011;5880;52.342;9.662;2022-12-11T08:32:02;18.37;;;11.60;;
11646;SDS011;5880;52.342;9.662;2022-12-11T08:34:28;16.77;;;10.97;;
11646;SDS011;5880;52.342;9.662;2022-12-11T08:36:54;16.43;;;10.60;;
11646;SDS011;5880;52.342;9.662;2022-12-11T08:39:19;17.33;;;10.87;;
11646;SDS011;5880;52.342;9.662;2022-12-11T08:41:45;16.13;;;10.50;;
11646;SDS011;5880;52.342;9.662;2022-12-11T08:44:11;18.17;;;11.13;;
11646;SDS011;5880;52.342;9.662;2022-12-11T08:46:37;18.03;;;11.07;;
11646;SDS011;5880;52.342;9.662;2022-12-11T08:49:03;17.80;;;10.80;;
11646;SDS011;5880;52.342;9.662;2022-12-11T08:51:30;15.03;;;10.77;;
11646;SDS011;5880;52.342;9.662;2022-12-11T08:53:57;16.83;;;11.27;;
11646;SDS011;5880;52.342;9.662;2022-12-11T08:56:25;19.17;;;11.50;;
11646;SDS011;5880;52.342;9.662;2022-12-11T08:58:52;17.57;;;11.07;;
11646;SDS011;5880;52.342;9.662;2022-12-11T09:01:20;18.77;;;11.27;;
11646;SDS011;5880;52.342;9.662;2022-12-11T09:03:49;18.37;;;11.77;;
11646;SDS011;5880;52.342;9.662;2022-12-11T09:06:18;16.73;;;10.87;;
11646;SDS011;5880;52.342;9.662;2022-12-11T09:08:47;17.70;;;10.40;;
11646;SDS011;5880;52.342;9.662;2022-12-11T09:11:16;17.70;;;11.40;;
11646;SDS011;5880;52.342;9.662;2022-12-11T09:13:45;17.23;;;10.87;;
11646;SDS011;5880;52.342;9.662;2022-12-11T09:16:12;16.57;;;11.10;;
11646;SDS011;5880;52.342;9.662;2022-12-11T09:18:43;16.90;;;11.07;;
11646;SDS011;5880;52.342;9.662;2022-12-11T09:21:12;18.00;;;10.33;;
11646;SDS011;5880;52.342;9.662;2022-12-11T09:23:43;16.60;;;10.40;;
11646;SDS011;5880;52.342;9.662;2022-12-11T09:26:10;16.43;;;10.53;;
11646;SDS011;5880;52.342;9.662;2022-12-11T09:28:39;15.97;;;10.40;;
11646;SDS011;5880;52.342;9.662;2022-12-11T09:31:12;14.67;;;10.13;;
11646;SDS011;5880;52.342;9.662;2022-12-11T09:33:42;18.10;;;11.10;;
11646;SDS011;5880;52.342;9.662;2022-12-11T09:36:08;15.93;;;10.33;;
11646;SDS011;5880;52.342;9.662;2022-12-11T09:38:35;18.17;;;10.67;;
11646;SDS011;5880;52.342;9.662;2022-12-11T09:41:14;15.33;;;10.60;;
11646;SDS011;5880;52.342;9.662;2022-12-11T09:46:25;15.63;;;10.73;;
11646;SDS011;5880;52.342;9.662;2022-12-11T09:48:52;18.67;;;12.37;;
11646;SDS011;5880;52.342;9.662;2022-12-11T09:54:13;16.87;;;10.73;;
11646;SDS011;5880;52.342;9.662;2022-12-11T09:56:51;14.63;;;10.43;;
11646;SDS011;5880;52.342;9.662;2022-12-11T10:02:49;17.30;;;10.33;;
11646;SDS011;5880;52.342;9.662;2022-12-11T10:08:38;18.17;;;11.43;;
11646;SDS011;5880;52.342;9.662;2022-12-11T10:19:44;13.77;;;9.50;;
11646;SDS011;5880;52.342;9.662;2022-12-11T10:22:13;16.47;;;10.90;;
11646;SDS011;5880;52.342;9.662;2022-12-11T10:25:00;17.87;;;11.70;;
11646;SDS011;5880;52.342;9.662;2022-12-11T10:27:33;15.40;;;10.37;;
11646;SDS011;5880;52.342;9.662;2022-12-11T10:35:48;16.57;;;10.10;;
11646;SDS011;5880;52.342;9.662;2022-12-11T10:38:29;15.87;;;10.80;;
11646;SDS011;5880;52.342;9.662;2022-12-11T10:41:02;16.70;;;10.50;;
11646;SDS011;5880;52.342;9.662;2022-12-11T10:43:38;15.70;;;10.77;;
11646;SDS011;5880;52.342;9.662;2022-12-11T10:46:41;16.37;;;10.47;;
11646;SDS011;5880;52.342;9.662;2022-12-11T10:49:01;18.97;;;11.17;;
11646;SDS011;5880;52.342;9.662;2022-12-11T10:53:57;16.10;;;10.90;;
11646;SDS011;5880;52.342;9.662;2022-12-11T10:56:53;14.70;;;10.17;;
11646;SDS011;5880;52.342;9.662;2022-12-11T11:00:07;16.00;;;11.13;;
11646;SDS011;5880;52.342;9.662;2022-12-11T11:02:24;15.97;;;10.80;;
11646;SDS011;5880;52.342;9.662;2022-12-11T11:04:59;15.30;;;10.60;;
11646;SDS011;5880;52.342;9.662;2022-12-11T11:10:59;16.83;;;11.10;;
11646;SDS011;5880;52.342;9.662;2022-12-11T11:13:29;17.80;;;10.93;;
11646;SDS011;5880;52.342;9.662;2022-12-11T11:16:00;17.57;;;12.17;;
11646;SDS011;5880;52.342;9.662;2022-12-11T11:18:31;18.50;;;12.03;;
11646;SDS011;5880;52.342;9.662;2022-12-11T11:20:58;16.93;;;11.33;;
11646;SDS011;5880;52.342;9.662;2022-12-11T11:23:25;18.10;;;12.10;;
11646;SDS011;5880;52.342;9.662;2022-12-11T11:25:53;19.63;;;11.37;;
11646;SDS011;5880;52.342;9.662;2022-12-11T11:28:26;19.03;;;12.23;;
11646;SDS011;5880;52.342;9.662;2022-12-11T11:31:02;17.47;;;11.00;;
11646;SDS011;5880;52.342;9.662;2022-12-11T11:33:33;18.70;;;11.30;;
11646;SDS011;5880;52.342;9.662;2022-12-11T11:36:05;17.83;;;11.60;;
11646;SDS011;5880;52.342;9.662;2022-12-11T11:41:30;16.43;;;11.13;;
11646;SDS011;5880;52.342;9.662;2022-12-11T11:44:19;16.07;;;10.93;;
11646;SDS011;5880;52.342;9.662;2022-12-11T11:47:00;16.50;;;11.20;;
11646;SDS011;5880;52.342;9.662;2022-12-11T11:49:52;17.70;;;11.93;;
11646;SDS011;5880;52.342;9.662;2022-12-11T11:52:40;20.00;;;12.87;;
11646;SDS011;5880;52.342;9.662;2022-12-11T11:55:20;19.20;;;12.43;;
11646;SDS011;5880;52.342;9.662;2022-12-11T11:58:06;19.87;;;12.83;;
11646;SDS011;5880;52.342;9.662;2022-12-11T12:00:39;18.50;;;11.60;;
11646;SDS011;5880;52.342;9.662;2022-12-11T12:03:10;21.03;;;12.87;;
11646;SDS011;5880;52.342;9.662;2022-12-11T12:05:47;18.50;;;12.50;;
11646;SDS011;5880;52.342;9.662;2022-12-11T12:14:06;19.43;;;12.13;;
11646;SDS011;5880;52.342;9.662;2022-12-11T12:19:49;20.50;;;12.70;;
11646;SDS011;5880;52.342;9.662;2022-12-11T12:22:55;18.57;;;11.43;;
11646;SDS011;5880;52.342;9.662;2022-12-11T12:25:41;18.97;;;11.60;;
11646;SDS011;5880;52.342;9.662;2022-12-11T12:45:17;18.87;;;12.43;;
11646;SDS011;5880;52.342;9.662;2022-12-11T12:48:06;19.80;;;13.03;;
11646;SDS011;5880;52.342;9.662;2022-12-11T12:50:36;19.30;;;13.27;;
11646;SDS011;5880;52.342;9.662;2022-12-11T12:53:08;21.17;;;12.87;;
11646;SDS011;5880;52.342;9.662;2022-12-11T12:55:44;19.77;;;12.63;;
11646;SDS011;5880;52.342;9.662;2022-12-11T12:58:29;23.97;;;14.13;;
11646;SDS011;5880;52.342;9.662;2022-12-11T13:01:13;19.87;;;12.70;;
11646;SDS011;5880;52.342;9.662;2022-12-11T13:03:59;20.10;;;12.60;;
11646;SDS011;5880;52.342;9.662;2022-12-11T13:06:36;21.30;;;14.07;;
11646;SDS011;5880;52.342;9.662;2022-12-11T13:09:12;23.40;;;14.47;;
11646;SDS011;5880;52.342;9.662;2022-12-11T13:11:47;20.73;;;14.10;;
11646;SDS011;5880;52.342;9.662;2022-12-11T13:16:44;24.50;;;14.43;;
11646;SDS011;5880;52.342;9.662;2022-12-11T13:24:48;20.07;;;13.40;;
11646;SDS011;5880;52.342;9.662;2022-12-11T13:27:38;19.30;;;12.77;;
11646;SDS011;5880;52.342;9.662;2022-12-11T13:32:42;21.43;;;14.10;;
11646;SDS011;5880;52.342;9.662;2022-12-11T13:35:26;24.37;;;13.87;;
11646;SDS011;5880;52.342;9.662;2022-12-11T13:37:52;20.50;;;12.90;;
11646;SDS011;5880;52.342;9.662;2022-12-11T13:40:26;22.70;;;14.20;;
11646;SDS011;5880;52.342;9.662;2022-12-11T13:43:10;20.77;;;13.00;;
11646;SDS011;5880;52.342;9.662;2022-12-11T13:45:50;22.13;;;13.67;;
11646;SDS011;5880;52.342;9.662;2022-12-11T13:48:42;19.00;;;13.30;;
11646;SDS011;5880;52.342;9.662;2022-12-11T13:51:18;21.10;;;13.17;;
11646;SDS011;5880;52.342;9.662;2022-12-11T13:53:47;20.03;;;13.60;;
11646;SDS011;5880;52.342;9.662;2022-12-11T13:56:25;22.80;;;14.17;;
11646;SDS011;5880;52.342;9.662;2022-12-11T13:58:51;21.30;;;14.00;;
11646;SDS011;5880;52.342;9.662;2022-12-11T14:06:33;25.33;;;15.57;;
11646;SDS011;5880;52.342;9.662;2022-12-11T14:09:02;28.97;;;16.70;;
11646;SDS011;5880;52.342;9.662;2022-12-11T14:11:33;29.53;;;18.17;;
11646;SDS011;5880;52.342;9.662;2022-12-11T14:14:07;28.67;;;17.03;;
11646;SDS011;5880;52.342;9.662;2022-12-11T14:16:48;30.87;;;17.77;;
11646;SDS011;5880;52.342;9.662;2022-12-11T14:19:17;38.07;;;20.17;;
11646;SDS011;5880;52.342;9.662;2022-12-11T14:21:56;35.97;;;20.37;;
11646;SDS011;5880;52.342;9.662;2022-12-11T14:24:26;31.13;;;18.27;;
11646;SDS011;5880;52.342;9.662;2022-12-11T14:26:53;33.10;;;17.60;;
11646;SDS011;5880;52.342;9.662;2022-12-11T14:29:38;29.10;;;16.63;;
11646;SDS011;5880;52.342;9.662;2022-12-11T14:32:04;31.67;;;16.67;;
11646;SDS011;5880;52.342;9.662;2022-12-11T14:34:33;25.40;;;15.83;;
11646;SDS011;5880;52.342;9.662;2022-12-11T14:37:07;26.77;;;16.50;;
11646;SDS011;5880;52.342;9.662;2022-12-11T14:39:37;30.20;;;17.43;;
11646;SDS011;5880;52.342;9.662;2022-12-11T14:42:21;24.87;;;15.43;;
11646;SDS011;5880;52.342;9.662;2022-12-11T14:44:55;23.33;;;15.10;;
11646;SDS011;5880;52.342;9.662;2022-12-11T14:48:07;20.63;;;13.23;;
11646;SDS011;5880;52.342;9.662;2022-12-11T14:50:45;21.67;;;13.57;;
11646;SDS011;5880;52.342;9.662;2022-12-11T14:53:20;23.53;;;15.00;;
11646;SDS011;5880;52.342;9.662;2022-12-11T14:55:53;21.97;;;13.27;;
11646;SDS011;5880;52.342;9.662;2022-12-11T14:58:24;22.07;;;13.63;;
11646;SDS011;5880;52.342;9.662;2022-12-11T15:00:58;17.30;;;12.00;;
11646;SDS011;5880;52.342;9.662;2022-12-11T15:03:44;22.40;;;13.53;;
11646;SDS011;5880;52.342;9.662;2022-12-11T15:06:45;21.07;;;13.37;;
11646;SDS011;5880;52.342;9.662;2022-12-11T15:11:51;21.33;;;13.67;;
11646;SDS011;5880;52.342;9.662;2022-12-11T15:14:22;20.17;;;12.77;;
11646;SDS011;5880;52.342;9.662;2022-12-11T15:16:50;20.70;;;13.40;;
11646;SDS011;5880;52.342;9.662;2022-12-11T15:19:29;21.67;;;13.57;;
11646;SDS011;5880;52.342;9.662;2022-12-11T15:22:02;22.00;;;13.33;;
11646;SDS011;5880;52.342;9.662;2022-12-11T15:24:37;21.77;;;13.10;;
11646;SDS011;5880;52.342;9.662;2022-12-11T15:32:45;21.17;;;12.67;;
11646;SDS011;5880;52.342;9.662;2022-12-11T15:35:24;21.63;;;13.00;;
11646;SDS011;5880;52.342;9.662;2022-12-11T15:37:52;19.23;;;12.87;;
11646;SDS011;5880;52.342;9.662;2022-12-11T15:40:20;21.87;;;13.37;;
11646;SDS011;5880;52.342;9.662;2022-12-11T15:42:46;22.57;;;13.80;;
11646;SDS011;5880;52.342;9.662;2022-12-11T15:45:16;22.13;;;13.60;;
11646;SDS011;5880;52.342;9.662;2022-12-11T15:47:45;20.53;;;12.90;;
11646;SDS011;5880;52.342;9.662;2022-12-11T15:50:17;19.73;;;12.60;;
11646;SDS011;5880;52.342;9.662;2022-12-11T15:52:47;21.83;;;13.10;;
11646;SDS011;5880;52.342;9.662;2022-12-11T15:55:14;23.23;;;14.07;;
11646;SDS011;5880;52.342;9.662;2022-12-11T16:00:25;20.30;;;12.23;;
11646;SDS011;5880;52.342;9.662;2022-12-11T16:02:54;21.77;;;13.90;;
11646;SDS011;5880;52.342;9.662;2022-12-11T16:05:21;22.70;;;12.97;;
11646;SDS011;5880;52.342;9.662;2022-12-11T16:07:48;20.30;;;13.17;;
11646;SDS011;5880;52.342;9.662;2022-12-11T16:10:23;21.37;;;13.20;;
11646;SDS011;5880;52.342;9.662;2022-12-11T16:12:50;24.97;;;14.70;;
11646;SDS011;5880;52.342;9.662;2022-12-11T16:15:16;22.67;;;13.70;;
11646;SDS011;5880;52.342;9.662;2022-12-11T16:17:42;23.80;;;14.03;;
11646;SDS011;5880;52.342;9.662;2022-12-11T16:20:08;25.37;;;15.07;;
11646;SDS011;5880;52.342;9.662;2022-12-11T16:22:35;21.67;;;13.73;;
11646;SDS011;5880;52.342;9.662;2022-12-11T16:25:01;21.10;;;13.33;;
11646;SDS011;5880;52.342;9.662;2022-12-11T16:27:27;24.30;;;14.87;;
11646;SDS011;5880;52.342;9.662;2022-12-11T16:29:53;23.03;;;14.53;;
11646;SDS011;5880;52.342;9.662;2022-12-11T16:32:19;23.47;;;14.07;;
11646;SDS011;5880;52.342;9.662;2022-12-11T16:34:45;25.00;;;14.50;;
11646;SDS011;5880;52.342;9.662;2022-12-11T16:37:11;20.93;;;13.40;;
11646;SDS011;5880;52.342;9.662;2022-12-11T16:39:38;23.30;;;14.37;;
11646;SDS011;5880;52.342;9.662;2022-12-11T16:42:04;24.77;;;14.63;;
11646;SDS011;5880;52.342;9.662;2022-12-11T16:44:30;23.33;;;15.17;;